Time;durP1;ratioP1;P1;durP2;ratioP2;P2;SDS_P1;SDS_P2;PMS_P1;PMS_P2;Temp;Humidity;BMP_temperature;BMP_pressure;BME280_temperature;BME280_humidity;BME280_pressure;Samples;Min_cycle;Max_cycle;Signal;HPM_P1;HPM_P2
2023/05/19 00:01:42;;;;;;;5.50;4.30;;;;;;;;;;110608;1249;22529;-77
2023/05/19 00:04:08;;;;;;;;;;;;;;;;;;110521;1250;56848;-78
2023/05/19 00:06:35;;;;;;;6.80;4.60;;;;;;;;;;110655;1250;22468;-78
2023/05/19 00:09:02;;;;;;;6.50;4.60;;;;;;;;;;110503;1250;22267;-79
2023/05/19 00:11:28;;;;;;;7.10;5.40;;;;;;;;;;110614;1250;22392;-79
2023/05/19 00:13:55;;;;;;;7.30;5.70;;;;;;;;;;110671;1249;22836;-77
2023/05/19 00:16:22;;;;;;;7.50;6.00;;;;;;;;;;110688;1250;22516;-79
2023/05/19 00:18:48;;;;;;;7.50;6.30;;;;;;;;;;110659;1249;22453;-77
2023/05/19 00:21:15;;;;;;;8.90;5.80;;;;;;;;;;110661;1249;22468;-77
2023/05/19 00:23:41;;;;;;;8.70;5.40;;;;;;;;;;110643;1249;22579;-77
2023/05/19 00:26:08;;;;;;;8.00;6.70;;;;;;;;;;110653;1249;22309;-77
2023/05/19 00:28:35;;;;;;;6.90;5.30;;;;;;;;;;110628;1249;22448;-77
2023/05/19 00:31:02;;;;;;;9.90;5.40;;;;;;;;;;110639;1250;22400;-78
2023/05/19 00:33:28;;;;;;;11.40;5.60;;;;;;;;;;110649;1253;22495;-79
2023/05/19 00:35:55;;;;;;;9.50;7.10;;;;;;;;;;110666;1250;22403;-77
2023/05/19 00:38:21;;;;;;;10.90;7.70;;;;;;;;;;110622;1251;22358;-77
2023/05/19 00:40:48;;;;;;;10.60;7.50;;;;;;;;;;110565;1249;22406;-77
2023/05/19 00:43:14;;;;;;;13.80;9.10;;;;;;;;;;110525;1254;22426;-77
2023/05/19 00:45:40;;;;;;;15.60;9.80;;;;;;;;;;110601;1249;22393;-77
2023/05/19 00:48:07;;;;;;;17.30;11.40;;;;;;;;;;110646;1250;22555;-77
2023/05/19 00:50:33;;;;;;;18.00;11.20;;;;;;;;;;110669;1251;22503;-79
2023/05/19 00:53:00;;;;;;;15.20;10.90;;;;;;;;;;110683;1250;22805;-77
2023/05/19 00:55:27;;;;;;;8.80;7.20;;;;;;;;;;110601;1249;22907;-80
2023/05/19 00:57:54;;;;;;;11.20;6.60;;;;;;;;;;110637;1249;22559;-78
2023/05/19 01:00:21;;;;;;;7.40;5.50;;;;;;;;;;110636;1250;22586;-79
2023/05/19 01:02:49;;;;;;;7.10;5.50;;;;;;;;;;110759;1247;22602;-77
2023/05/19 01:05:15;;;;;;;12.70;7.00;;;;;;;;;;110665;1248;22529;-80
2023/05/19 01:07:42;;;;;;;9.60;8.00;;;;;;;;;;110787;1250;22348;-79
2023/05/19 01:10:08;;;;;;;9.90;7.20;;;;;;;;;;110773;1247;22338;-79
2023/05/19 01:12:35;;;;;;;10.40;7.10;;;;;;;;;;110601;1247;22347;-79
2023/05/19 01:15:01;;;;;;;10.20;7.40;;;;;;;;;;110808;1248;22394;-77
2023/05/19 01:17:29;;;;;;;14.50;9.50;;;;;;;;;;110818;1247;22385;-78
2023/05/19 01:20:00;;;;;;;13.30;10.00;;;;;;;;;;110800;1247;22388;-78
2023/05/19 01:22:31;;;;;;;12.80;9.00;;;;;;;;;;110804;1248;22527;-77
2023/05/19 01:25:00;;;;;;;12.10;8.00;;;;;;;;;;110775;1248;22284;-79
2023/05/19 01:27:45;;;;;;;12.10;8.50;;;;;;;;;;110745;1252;22466;-79
2023/05/19 01:30:14;;;;;;;10.50;7.90;;;;;;;;;;110682;1250;23038;-79
2023/05/19 01:32:41;;;;;;;11.70;6.50;;;;;;;;;;110667;1250;23623;-77
2023/05/19 01:35:08;;;;;;;9.60;7.20;;;;;;;;;;110495;1250;22443;-77
2023/05/19 01:37:35;;;;;;;11.20;6.90;;;;;;;;;;110684;1249;22326;-79
2023/05/19 01:40:01;;;;;;;10.30;7.60;;;;;;;;;;110613;1250;22674;-77
2023/05/19 01:42:28;;;;;;;19.20;8.10;;;;;;;;;;110595;1251;22336;-77
2023/05/19 01:44:54;;;;;;;10.60;7.60;;;;;;;;;;110633;1251;22321;-78
2023/05/19 01:47:21;;;;;;;10.30;7.40;;;;;;;;;;110698;1251;22298;-79
2023/05/19 01:49:47;;;;;;;12.70;7.30;;;;;;;;;;110628;1250;22444;-79
2023/05/19 01:52:14;;;;;;;11.20;7.80;;;;;;;;;;110692;1250;22263;-79
2023/05/19 01:54:40;;;;;;;12.40;9.10;;;;;;;;;;110633;1251;22894;-77
2023/05/19 01:57:23;;;;;;;15.20;9.80;;;;;;;;;;110664;1249;30988;-79
2023/05/19 01:59:59;;;;;;;15.00;8.30;;;;;;;;;;110537;1250;146583;-77
2023/05/19 02:02:29;;;;;;;11.20;7.90;;;;;;;;;;110667;1248;22838;-78
2023/05/19 02:04:56;;;;;;;13.10;9.10;;;;;;;;;;110785;1248;22890;-78
2023/05/19 02:07:23;;;;;;;24.50;11.40;;;;;;;;;;110796;1248;22474;-79
2023/05/19 02:09:51;;;;;;;11.40;8.30;;;;;;;;;;110795;1248;23191;-80
2023/05/19 02:12:33;;;;;;;12.70;8.70;;;;;;;;;;110801;1247;22371;-79
2023/05/19 02:15:06;;;;;;;11.70;8.80;;;;;;;;;;110787;1248;22219;-79
2023/05/19 02:17:35;;;;;;;10.30;7.30;;;;;;;;;;110773;1247;22380;-77
2023/05/19 02:20:03;;;;;;;14.00;9.10;;;;;;;;;;111030;1247;22375;-78
2023/05/19 02:22:29;;;;;;;16.30;12.00;;;;;;;;;;110970;1248;22364;-77
2023/05/19 02:24:56;;;;;;;35.50;19.40;;;;;;;;;;110999;1247;22400;-77
2023/05/19 02:27:22;;;;;;;27.10;17.30;;;;;;;;;;111010;1248;22334;-77
2023/05/19 02:29:48;;;;;;;22.00;15.50;;;;;;;;;;110905;1250;22313;-79
2023/05/19 02:32:15;;;;;;;18.80;13.70;;;;;;;;;;110840;1251;22345;-77
2023/05/19 02:34:44;;;;;;;17.00;11.90;;;;;;;;;;110684;1251;22873;-77
2023/05/19 02:37:13;;;;;;;13.80;9.70;;;;;;;;;;110618;1249;23187;-77
2023/05/19 02:39:40;;;;;;;26.60;22.10;;;;;;;;;;110653;1251;22330;-77
2023/05/19 02:42:08;;;;;;;14.40;10.90;;;;;;;;;;110731;1251;22337;-77
2023/05/19 02:44:34;;;;;;;10.50;8.40;;;;;;;;;;110670;1250;22550;-77
2023/05/19 02:47:01;;;;;;;12.30;8.60;;;;;;;;;;110701;1250;22354;-79
2023/05/19 02:49:29;;;;;;;11.40;7.70;;;;;;;;;;110856;1249;22481;-77
2023/05/19 02:51:56;;;;;;;11.40;8.20;;;;;;;;;;110638;1251;22762;-79
2023/05/19 02:54:22;;;;;;;14.40;10.00;;;;;;;;;;110637;1250;22774;-79
2023/05/19 02:56:49;;;;;;;17.00;10.90;;;;;;;;;;110592;1250;22492;-78
2023/05/19 02:59:15;;;;;;;18.30;14.00;;;;;;;;;;110832;1250;22500;-79
2023/05/19 03:01:41;;;;;;;18.10;12.80;;;;;;;;;;110843;1248;22460;-77
2023/05/19 03:04:07;;;;;;;16.80;13.70;;;;;;;;;;110796;1247;56971;-77
2023/05/19 03:06:35;;;;;;;17.00;13.00;;;;;;;;;;110782;1247;22239;-77
2023/05/19 03:09:01;;;;;;;26.90;17.70;;;;;;;;;;110614;1247;22450;-77
2023/05/19 03:11:29;;;;;;;21.50;15.70;;;;;;;;;;110755;1248;22394;-77
2023/05/19 03:13:56;;;;;;;20.60;15.40;;;;;;;;;;110790;1248;22419;-79
2023/05/19 03:16:22;;;;;;;19.10;12.80;;;;;;;;;;110754;1247;23653;-77
2023/05/19 03:18:49;;;;;;;15.20;11.10;;;;;;;;;;110740;1247;22407;-77
2023/05/19 03:21:16;;;;;;;12.80;8.20;;;;;;;;;;110773;1247;22208;-79
2023/05/19 03:23:42;;;;;;;10.50;7.70;;;;;;;;;;110764;1248;22425;-79
2023/05/19 03:26:08;;;;;;;13.70;8.70;;;;;;;;;;110803;1247;23172;-77
2023/05/19 03:28:35;;;;;;;14.90;10.30;;;;;;;;;;110767;1247;23038;-77
2023/05/19 03:31:01;;;;;;;12.10;8.60;;;;;;;;;;110627;1250;22326;-77
2023/05/19 03:33:28;;;;;;;12.70;8.30;;;;;;;;;;110639;1251;23016;-78
2023/05/19 03:35:55;;;;;;;10.20;7.70;;;;;;;;;;110682;1251;23108;-79
2023/05/19 03:38:22;;;;;;;13.90;6.90;;;;;;;;;;110640;1250;23021;-80
2023/05/19 03:40:48;;;;;;;9.90;7.00;;;;;;;;;;110627;1250;22347;-79
2023/05/19 03:43:15;;;;;;;9.60;7.20;;;;;;;;;;110633;1250;23168;-77
2023/05/19 03:45:41;;;;;;;10.10;7.40;;;;;;;;;;110670;1250;22434;-77
2023/05/19 03:48:07;;;;;;;14.00;8.40;;;;;;;;;;110639;1251;22322;-79
2023/05/19 03:50:34;;;;;;;15.50;10.80;;;;;;;;;;110667;1249;23187;-80
2023/05/19 03:53:00;;;;;;;15.80;10.30;;;;;;;;;;110518;1250;22527;-79
2023/05/19 03:55:28;;;;;;;14.10;9.80;;;;;;;;;;110620;1251;23379;-77
2023/05/19 03:57:55;;;;;;;16.50;9.70;;;;;;;;;;110544;1250;22373;-78
2023/05/19 04:00:22;;;;;;;12.10;8.10;;;;;;;;;;110634;1251;22927;-78
2023/05/19 04:02:48;;;;;;;15.50;9.30;;;;;;;;;;110640;1250;23049;-77
2023/05/19 04:05:15;;;;;;;11.90;8.70;;;;;;;;;;110619;1249;23290;-79
2023/05/19 04:07:42;;;;;;;11.50;8.50;;;;;;;;;;110619;1251;22437;-79
2023/05/19 04:10:08;;;;;;;12.50;8.40;;;;;;;;;;110658;1250;22432;-77
2023/05/19 04:12:34;;;;;;;11.60;9.00;;;;;;;;;;110653;1250;22728;-77
2023/05/19 04:15:01;;;;;;;10.90;8.00;;;;;;;;;;110617;1249;23003;-77
2023/05/19 04:17:27;;;;;;;12.50;6.70;;;;;;;;;;110614;1251;22441;-80
2023/05/19 04:19:53;;;;;;;9.90;6.90;;;;;;;;;;110619;1249;22276;-79
2023/05/19 04:22:20;;;;;;;13.80;9.40;;;;;;;;;;110685;1250;23208;-79
2023/05/19 04:24:47;;;;;;;13.40;9.70;;;;;;;;;;110636;1250;22194;-79
2023/05/19 04:27:15;;;;;;;8.60;6.60;;;;;;;;;;110657;1251;22495;-79
2023/05/19 04:29:41;;;;;;;10.60;5.20;;;;;;;;;;110621;1250;22425;-79
2023/05/19 04:32:07;;;;;;;6.60;5.20;;;;;;;;;;110673;1249;22639;-81
2023/05/19 04:34:34;;;;;;;6.60;4.70;;;;;;;;;;110646;1249;22380;-77
2023/05/19 04:37:01;;;;;;;7.40;5.20;;;;;;;;;;110641;1250;22425;-77
2023/05/19 04:39:27;;;;;;;8.00;5.00;;;;;;;;;;110633;1249;22624;-77
2023/05/19 04:41:53;;;;;;;9.40;5.60;;;;;;;;;;110641;1250;23196;-79
2023/05/19 04:44:20;;;;;;;6.00;4.40;;;;;;;;;;110695;1249;23056;-79
2023/05/19 04:46:46;;;;;;;6.40;4.20;;;;;;;;;;110613;1251;22469;-77
2023/05/19 04:49:13;;;;;;;9.70;5.90;;;;;;;;;;110682;1251;23025;-77
2023/05/19 04:51:44;;;;;;;7.10;5.10;;;;;;;;;;110690;1251;23185;-78
2023/05/19 04:54:11;;;;;;;8.30;6.40;;;;;;;;;;110686;1250;23036;-79
2023/05/19 04:56:37;;;;;;;11.10;7.60;;;;;;;;;;110633;1251;22260;-77
2023/05/19 04:59:03;;;;;;;11.50;7.00;;;;;;;;;;110664;1251;23135;-77
2023/05/19 05:01:32;;;;;;;8.30;5.70;;;;;;;;;;110723;1247;22431;-77
2023/05/19 05:04:01;;;;;;;9.70;7.50;;;;;;;;;;110614;1247;22445;-79
2023/05/19 05:06:28;;;;;;;10.50;5.50;;;;;;;;;;110744;1248;22635;-80
2023/05/19 05:08:55;;;;;;;8.40;5.30;;;;;;;;;;110727;1250;23862;-79
2023/05/19 05:11:22;;;;;;;7.40;5.10;;;;;;;;;;110676;1251;23853;-77
2023/05/19 05:13:48;;;;;;;7.40;5.20;;;;;;;;;;110643;1250;22416;-77
2023/05/19 05:16:15;;;;;;;6.50;4.60;;;;;;;;;;110676;1249;22310;-77
2023/05/19 05:18:42;;;;;;;8.30;5.00;;;;;;;;;;110624;1250;22875;-79
2023/05/19 05:21:08;;;;;;;7.10;5.40;;;;;;;;;;110581;1250;22453;-77
2023/05/19 05:23:35;;;;;;;6.80;4.80;;;;;;;;;;110575;1250;22567;-79
2023/05/19 05:26:02;;;;;;;10.10;6.60;;;;;;;;;;110626;1249;22435;-77
2023/05/19 05:28:30;;;;;;;8.70;6.20;;;;;;;;;;110631;1249;22311;-77
2023/05/19 05:30:56;;;;;;;11.20;6.10;;;;;;;;;;110637;1249;22346;-77
2023/05/19 05:33:23;;;;;;;8.50;5.70;;;;;;;;;;110631;1249;23196;-79
2023/05/19 05:35:49;;;;;;;9.50;6.20;;;;;;;;;;110671;1251;23199;-77
2023/05/19 05:38:16;;;;;;;7.50;5.90;;;;;;;;;;110594;1247;22544;-77
2023/05/19 05:40:42;;;;;;;7.40;4.70;;;;;;;;;;110412;1248;22538;-77
2023/05/19 05:43:08;;;;;;;7.20;5.30;;;;;;;;;;110616;1249;22933;-77
2023/05/19 05:45:35;;;;;;;7.90;5.50;;;;;;;;;;110573;1250;22305;-77
2023/05/19 05:48:01;;;;;;;6.50;4.60;;;;;;;;;;110591;1250;22289;-79
2023/05/19 05:50:28;;;;;;;7.10;4.80;;;;;;;;;;110669;1248;22972;-80
2023/05/19 05:52:54;;;;;;;7.50;4.70;;;;;;;;;;110663;1250;22977;-78
2023/05/19 05:55:21;;;;;;;6.20;5.40;;;;;;;;;;110607;1250;22581;-77
2023/05/19 05:57:49;;;;;;;7.60;4.80;;;;;;;;;;110721;1247;22515;-79
2023/05/19 06:00:15;;;;;;;6.30;4.40;;;;;;;;;;110570;1249;23270;-77
2023/05/19 06:02:46;;;;;;;8.10;5.60;;;;;;;;;;110538;1249;22546;-79
2023/05/19 06:05:12;;;;;;;7.60;5.20;;;;;;;;;;110233;1249;23180;-77
2023/05/19 06:07:39;;;;;;;12.80;7.20;;;;;;;;;;110426;1250;22528;-79
2023/05/19 06:10:06;;;;;;;18.60;7.90;;;;;;;;;;110518;1247;23923;-79
2023/05/19 06:12:33;;;;;;;9.70;6.90;;;;;;;;;;110496;1250;25217;-79
2023/05/19 06:15:00;;;;;;;13.80;7.00;;;;;;;;;;110546;1248;23205;-77
2023/05/19 06:17:26;;;;;;;8.10;4.70;;;;;;;;;;110601;1250;22516;-79
2023/05/19 06:19:53;;;;;;;7.20;5.30;;;;;;;;;;110562;1251;23327;-78
2023/05/19 06:22:19;;;;;;;11.30;6.00;;;;;;;;;;110529;1250;22496;-79
2023/05/19 06:24:45;;;;;;;9.60;5.10;;;;;;;;;;110562;1247;22526;-79
2023/05/19 06:27:12;;;;;;;8.30;4.90;;;;;;;;;;110576;1250;22412;-79
2023/05/19 06:29:38;;;;;;;8.30;5.40;;;;;;;;;;110506;1251;23212;-80
2023/05/19 06:32:04;;;;;;;12.50;6.10;;;;;;;;;;110401;1248;22332;-77
2023/05/19 06:34:31;;;;;;;5.80;4.10;;;;;;;;;;110334;1250;24321;-77
2023/05/19 06:36:58;;;;;;;8.40;4.90;;;;;;;;;;110450;1249;22555;-79
2023/05/19 06:39:25;;;;;;;6.50;4.50;;;;;;;;;;110432;1247;22473;-80
2023/05/19 06:41:51;;;;;;;6.50;4.00;;;;;;;;;;110422;1251;23334;-79
2023/05/19 06:44:17;;;;;;;6.70;3.90;;;;;;;;;;110411;1251;22548;-77
2023/05/19 06:46:44;;;;;;;9.30;5.40;;;;;;;;;;110437;1250;22496;-81
2023/05/19 06:49:10;;;;;;;8.60;5.10;;;;;;;;;;110420;1248;23344;-79
2023/05/19 06:51:36;;;;;;;8.10;4.60;;;;;;;;;;110382;1251;22565;-77
2023/05/19 06:54:03;;;;;;;7.40;4.70;;;;;;;;;;110565;1247;22595;-79
2023/05/19 06:56:29;;;;;;;12.10;6.20;;;;;;;;;;110586;1248;24565;-77
2023/05/19 06:58:55;;;;;;;7.90;5.90;;;;;;;;;;110568;1249;22536;-76
2023/05/19 07:01:22;;;;;;;6.40;4.70;;;;;;;;;;110630;1250;22406;-79
2023/05/19 07:03:48;;;;;;;8.10;4.80;;;;;;;;;;110612;1250;22369;-80
2023/05/19 07:06:14;;;;;;;7.30;5.10;;;;;;;;;;110666;1249;22384;-77
2023/05/19 07:08:41;;;;;;;8.30;4.90;;;;;;;;;;110476;1249;23506;-79
2023/05/19 07:11:07;;;;;;;8.90;5.20;;;;;;;;;;110453;1249;22429;-77
2023/05/19 07:13:34;;;;;;;9.10;6.50;;;;;;;;;;110646;1250;22736;-77
2023/05/19 07:16:00;;;;;;;8.20;4.90;;;;;;;;;;110564;1249;22497;-79
2023/05/19 07:18:28;;;;;;;6.20;3.90;;;;;;;;;;110612;1247;22898;-77
2023/05/19 07:20:56;;;;;;;10.00;5.00;;;;;;;;;;110598;1248;22537;-78
2023/05/19 07:23:22;;;;;;;8.50;4.50;;;;;;;;;;110598;1249;23277;-77
2023/05/19 07:25:48;;;;;;;11.10;5.20;;;;;;;;;;110641;1248;22239;-78
2023/05/19 07:28:15;;;;;;;10.50;4.40;;;;;;;;;;110591;1250;22447;-77
2023/05/19 07:30:41;;;;;;;7.50;4.10;;;;;;;;;;110531;1251;23255;-79
2023/05/19 07:33:08;;;;;;;8.50;5.20;;;;;;;;;;110425;1249;23306;-79
2023/05/19 07:35:34;;;;;;;10.10;4.50;;;;;;;;;;110481;1249;23060;-77
2023/05/19 07:38:01;;;;;;;8.20;4.30;;;;;;;;;;110348;1251;23037;-80
2023/05/19 07:40:28;;;;;;;5.00;3.80;;;;;;;;;;110478;1253;22492;-79
2023/05/19 07:42:54;;;;;;;7.30;6.20;;;;;;;;;;110549;1249;22494;-80
2023/05/19 07:45:20;;;;;;;70.30;63.00;;;;;;;;;;110570;1250;23178;-77
2023/05/19 07:47:47;;;;;;;16.20;14.50;;;;;;;;;;110500;1250;23191;-80
2023/05/19 07:50:13;;;;;;;8.60;7.50;;;;;;;;;;110507;1247;22547;-77
2023/05/19 07:52:39;;;;;;;6.30;4.40;;;;;;;;;;110620;1249;22476;-77
2023/05/19 07:55:06;;;;;;;5.90;4.40;;;;;;;;;;110640;1250;22620;-78
2023/05/19 07:57:32;;;;;;;5.90;3.80;;;;;;;;;;110654;1250;22443;-79
2023/05/19 07:59:59;;;;;;;5.80;3.70;;;;;;;;;;110445;1248;23896;-80
2023/05/19 08:02:26;;;;;;;3.80;2.40;;;;;;;;;;110402;1250;22456;-78
2023/05/19 08:04:52;;;;;;;3.70;2.80;;;;;;;;;;110404;1250;22483;-80
2023/05/19 08:07:19;;;;;;;8.50;3.40;;;;;;;;;;110476;1250;22459;-80
2023/05/19 08:09:45;;;;;;;6.40;4.30;;;;;;;;;;110467;1252;23176;-77
2023/05/19 08:12:11;;;;;;;8.90;4.50;;;;;;;;;;110645;1247;22641;-79
2023/05/19 08:14:38;;;;;;;5.90;3.80;;;;;;;;;;110617;1247;23303;-77
2023/05/19 08:17:05;;;;;;;11.60;4.40;;;;;;;;;;110628;1249;22477;-80
2023/05/19 08:19:31;;;;;;;6.50;3.10;;;;;;;;;;110481;1248;22427;-77
2023/05/19 08:21:59;;;;;;;4.80;3.60;;;;;;;;;;110475;1248;22540;-77
2023/05/19 08:24:28;;;;;;;6.10;3.60;;;;;;;;;;110450;1250;22460;-77
2023/05/19 08:26:55;;;;;;;;;;;;;;;;;;110501;1250;22576;-78
2023/05/19 08:29:21;;;;;;;7.30;4.70;;;;;;;;;;110561;1249;22621;-79
2023/05/19 08:31:47;;;;;;;5.70;3.80;;;;;;;;;;110543;1249;23716;-78
2023/05/19 08:34:14;;;;;;;7.90;3.50;;;;;;;;;;110485;1250;22419;-80
2023/05/19 08:36:40;;;;;;;4.00;2.70;;;;;;;;;;110482;1249;23241;-79
2023/05/19 08:39:07;;;;;;;4.80;3.50;;;;;;;;;;110657;1249;22355;-78
2023/05/19 08:41:33;;;;;;;5.10;3.90;;;;;;;;;;110661;1250;22380;-79
2023/05/19 08:44:00;;;;;;;8.90;4.90;;;;;;;;;;110570;1250;22522;-79
2023/05/19 08:46:26;;;;;;;7.00;4.70;;;;;;;;;;110459;1250;23051;-80
2023/05/19 08:49:00;;;;;;;9.10;5.20;;;;;;;;;;110317;1251;22586;-76
2023/05/19 08:51:32;;;;;;;9.90;7.10;;;;;;;;;;110652;1247;23321;-80
2023/05/19 08:54:02;;;;;;;8.40;6.70;;;;;;;;;;110480;1251;23025;-80
2023/05/19 08:56:28;;;;;;;9.00;6.00;;;;;;;;;;110646;1250;22744;-79
2023/05/19 08:58:58;;;;;;;7.90;6.20;;;;;;;;;;110686;1250;22544;-77
2023/05/19 09:01:25;;;;;;;9.50;5.70;;;;;;;;;;110679;1248;22364;-80
2023/05/19 09:03:51;;;;;;;7.50;6.20;;;;;;;;;;110726;1251;23341;-78
2023/05/19 09:06:18;;;;;;;6.90;4.70;;;;;;;;;;110770;1247;22680;-77
2023/05/19 09:08:45;;;;;;;8.50;4.70;;;;;;;;;;110359;1250;22826;-77
2023/05/19 09:11:12;;;;;;;6.90;5.20;;;;;;;;;;110558;1247;22392;-77
2023/05/19 09:13:38;;;;;;;7.60;5.00;;;;;;;;;;110638;1249;22572;-79
2023/05/19 09:16:05;;;;;;;7.00;5.20;;;;;;;;;;110462;1249;22914;-80
2023/05/19 09:18:31;;;;;;;10.80;5.20;;;;;;;;;;110514;1251;22583;-78
2023/05/19 09:20:59;;;;;;;7.90;4.70;;;;;;;;;;110450;1249;22577;-80
2023/05/19 09:23:27;;;;;;;6.90;4.70;;;;;;;;;;110457;1249;22513;-79
2023/05/19 09:25:53;;;;;;;9.10;4.80;;;;;;;;;;110470;1247;22149;-78
2023/05/19 09:28:24;;;;;;;7.10;5.30;;;;;;;;;;110317;1248;22599;-79
2023/05/19 09:30:59;;;;;;;7.10;5.50;;;;;;;;;;110291;1250;22580;-80
2023/05/19 09:33:27;;;;;;;6.80;5.00;;;;;;;;;;110524;1249;24018;-80
2023/05/19 09:35:55;;;;;;;9.30;5.50;;;;;;;;;;110465;1249;22507;-80
2023/05/19 09:38:25;;;;;;;6.30;5.10;;;;;;;;;;110561;1247;22590;-78
2023/05/19 09:40:52;;;;;;;6.50;5.20;;;;;;;;;;110762;1247;22537;-78
2023/05/19 09:43:20;;;;;;;5.40;4.30;;;;;;;;;;110710;1249;23270;-80
2023/05/19 09:45:46;;;;;;;5.90;4.90;;;;;;;;;;110440;1247;22417;-80
2023/05/19 09:48:14;;;;;;;8.20;5.70;;;;;;;;;;110719;1247;22461;-80
2023/05/19 09:50:44;;;;;;;12.40;4.80;;;;;;;;;;110749;1248;23161;-78
2023/05/19 09:53:11;;;;;;;7.20;4.80;;;;;;;;;;110609;1253;23099;-78
2023/05/19 09:55:38;;;;;;;4.90;4.20;;;;;;;;;;110320;1251;22271;-78
2023/05/19 09:58:05;;;;;;;5.10;4.60;;;;;;;;;;110494;1247;22556;-78
2023/05/19 10:00:31;;;;;;;10.30;5.80;;;;;;;;;;110478;1250;22563;-78
2023/05/19 10:02:57;;;;;;;7.60;5.10;;;;;;;;;;110334;1248;22488;-80
2023/05/19 10:05:24;;;;;;;10.00;5.00;;;;;;;;;;110570;1247;22327;-78
2023/05/19 10:07:51;;;;;;;7.00;5.00;;;;;;;;;;110347;1250;22971;-80
2023/05/19 10:10:19;;;;;;;6.90;5.00;;;;;;;;;;110711;1247;22508;-80
2023/05/19 10:12:46;;;;;;;6.20;4.60;;;;;;;;;;110742;1247;23219;-80
2023/05/19 10:15:13;;;;;;;8.10;4.70;;;;;;;;;;110599;1249;23834;-80
2023/05/19 10:17:40;;;;;;;6.60;4.40;;;;;;;;;;110575;1247;22520;-78
2023/05/19 10:20:08;;;;;;;6.40;3.90;;;;;;;;;;110417;1250;22861;-78
2023/05/19 10:22:34;;;;;;;11.50;6.60;;;;;;;;;;110631;1250;22439;-78
2023/05/19 10:25:00;;;;;;;7.50;6.20;;;;;;;;;;110624;1250;23389;-78
2023/05/19 10:27:27;;;;;;;8.90;6.40;;;;;;;;;;110641;1250;22823;-80
2023/05/19 10:29:53;;;;;;;7.20;5.30;;;;;;;;;;110492;1249;22303;-80
2023/05/19 10:32:27;;;;;;;5.30;4.20;;;;;;;;;;110658;1249;23129;-81
2023/05/19 10:34:56;;;;;;;6.10;4.40;;;;;;;;;;110610;1250;22439;-78
2023/05/19 10:37:29;;;;;;;6.00;4.50;;;;;;;;;;110693;1249;22448;-78
2023/05/19 10:39:55;;;;;;;6.80;4.40;;;;;;;;;;110697;1247;23918;-80
2023/05/19 10:42:25;;;;;;;8.80;4.40;;;;;;;;;;110699;1250;22497;-78
2023/05/19 10:45:01;;;;;;;6.20;4.50;;;;;;;;;;110640;1248;22475;-80
2023/05/19 10:47:28;;;;;;;7.50;4.20;;;;;;;;;;110519;1250;23023;-78
2023/05/19 10:49:54;;;;;;;12.60;6.50;;;;;;;;;;110538;1249;22989;-80
2023/05/19 10:52:21;;;;;;;7.00;4.90;;;;;;;;;;110789;1249;22892;-80
2023/05/19 10:54:48;;;;;;;8.20;5.50;;;;;;;;;;110408;1251;23959;-80
2023/05/19 10:57:15;;;;;;;8.40;4.60;;;;;;;;;;110482;1248;23141;-78
2023/05/19 10:59:43;;;;;;;8.30;5.20;;;;;;;;;;110510;1251;22577;-80
2023/05/19 11:02:09;;;;;;;6.90;5.80;;;;;;;;;;110325;1249;23400;-77
2023/05/19 11:04:37;;;;;;;19.50;13.00;;;;;;;;;;110305;1249;22508;-78
2023/05/19 11:07:04;;;;;;;7.60;6.00;;;;;;;;;;110541;1249;22425;-78
2023/05/19 11:09:32;;;;;;;7.40;5.60;;;;;;;;;;110527;1249;22671;-80
2023/05/19 11:12:02;;;;;;;9.40;5.70;;;;;;;;;;110588;1247;22550;-80
2023/05/19 11:14:30;;;;;;;16.30;7.10;;;;;;;;;;110478;1249;22584;-78
2023/05/19 11:16:57;;;;;;;13.60;7.30;;;;;;;;;;110689;1249;23672;-80
2023/05/19 11:19:26;;;;;;;8.10;5.00;;;;;;;;;;110705;1250;22415;-78
2023/05/19 11:21:56;;;;;;;11.80;6.70;;;;;;;;;;110696;1250;22526;-78
2023/05/19 11:24:31;;;;;;;6.70;5.30;;;;;;;;;;110489;1249;22658;-80
2023/05/19 11:26:57;;;;;;;57.80;34.30;;;;;;;;;;110592;1249;23009;-80
2023/05/19 11:29:25;;;;;;;12.60;9.40;;;;;;;;;;110582;1249;23299;-80
2023/05/19 11:31:51;;;;;;;15.60;8.10;;;;;;;;;;110655;1249;25252;-80
2023/05/19 11:34:18;;;;;;;8.50;5.40;;;;;;;;;;110629;1248;22988;-80
2023/05/19 11:36:44;;;;;;;9.80;6.70;;;;;;;;;;110543;1247;22446;-80
2023/05/19 11:39:11;;;;;;;10.30;6.50;;;;;;;;;;110647;1250;22963;-78
2023/05/19 11:41:38;;;;;;;17.90;10.10;;;;;;;;;;110593;1250;22361;-78
2023/05/19 11:44:11;;;;;;;18.60;10.20;;;;;;;;;;110677;1247;22342;-78
2023/05/19 11:46:37;;;;;;;9.20;7.60;;;;;;;;;;110575;1250;37889;-78
2023/05/19 11:49:03;;;;;;;14.30;8.30;;;;;;;;;;110675;1249;22746;-80
2023/05/19 11:51:31;;;;;;;25.10;13.60;;;;;;;;;;110705;1247;22941;-80
2023/05/19 11:53:58;;;;;;;14.60;8.80;;;;;;;;;;110718;1247;22401;-78
2023/05/19 11:56:24;;;;;;;18.10;10.10;;;;;;;;;;110678;1250;22222;-78
2023/05/19 11:58:52;;;;;;;11.10;7.10;;;;;;;;;;110623;1249;22567;-80
2023/05/19 12:01:18;;;;;;;18.40;8.50;;;;;;;;;;110499;1250;23130;-78
2023/05/19 12:03:45;;;;;;;15.30;9.20;;;;;;;;;;110171;1250;24047;-79
2023/05/19 12:06:16;;;;;;;14.10;7.80;;;;;;;;;;110364;1248;22547;-78
2023/05/19 12:08:43;;;;;;;12.60;7.80;;;;;;;;;;110528;1248;23148;-78
2023/05/19 12:11:09;;;;;;;13.10;7.90;;;;;;;;;;110687;1248;22340;-80
2023/05/19 12:13:35;;;;;;;11.50;7.60;;;;;;;;;;110525;1249;22571;-80
2023/05/19 12:16:02;;;;;;;12.00;7.70;;;;;;;;;;110520;1249;56200;-78
2023/05/19 12:18:30;;;;;;;17.00;8.30;;;;;;;;;;110509;1250;22925;-79
2023/05/19 12:20:56;;;;;;;23.50;9.20;;;;;;;;;;110653;1247;23227;-78
2023/05/19 12:23:23;;;;;;;11.70;9.40;;;;;;;;;;110502;1247;23167;-77
2023/05/19 12:25:50;;;;;;;8.50;7.00;;;;;;;;;;110617;1248;22427;-80
2023/05/19 12:28:17;;;;;;;9.50;6.90;;;;;;;;;;110687;1249;22450;-80
2023/05/19 12:30:48;;;;;;;8.70;7.20;;;;;;;;;;110645;1250;22463;-77
2023/05/19 12:33:15;;;;;;;8.20;6.10;;;;;;;;;;110524;1249;23257;-79
2023/05/19 12:35:41;;;;;;;19.00;9.50;;;;;;;;;;110461;1250;23095;-78
2023/05/19 12:38:07;;;;;;;10.90;7.10;;;;;;;;;;110506;1250;22472;-80
2023/05/19 12:40:34;;;;;;;9.40;7.20;;;;;;;;;;110482;1249;24133;-78
2023/05/19 12:43:00;;;;;;;57.70;36.90;;;;;;;;;;110547;1249;23189;-78
2023/05/19 12:45:27;;;;;;;17.10;11.30;;;;;;;;;;110467;1248;22547;-78
2023/05/19 12:47:53;;;;;;;13.80;7.50;;;;;;;;;;110518;1250;22352;-80
2023/05/19 12:50:20;;;;;;;14.90;8.10;;;;;;;;;;110564;1248;54856;-77
2023/05/19 12:52:47;;;;;;;58.90;45.10;;;;;;;;;;110617;1250;22429;-77
2023/05/19 12:55:13;;;;;;;11.90;9.80;;;;;;;;;;110563;1251;23286;-78
2023/05/19 12:57:41;;;;;;;16.20;9.70;;;;;;;;;;110476;1248;22439;-77
2023/05/19 13:00:12;;;;;;;14.90;10.50;;;;;;;;;;110511;1249;22542;-77
2023/05/19 13:03:01;;;;;;;13.70;9.40;;;;;;;;;;110426;1250;22438;-80
2023/05/19 13:05:28;;;;;;;19.60;16.60;;;;;;;;;;110436;1249;24572;-77
2023/05/19 13:07:58;;;;;;;16.70;9.60;;;;;;;;;;110449;1248;25439;-79
2023/05/19 13:10:27;;;;;;;13.10;11.10;;;;;;;;;;110467;1250;22994;-77
2023/05/19 13:12:54;;;;;;;14.10;8.30;;;;;;;;;;110427;1251;22412;-77
2023/05/19 13:15:21;;;;;;;15.10;7.40;;;;;;;;;;110529;1248;23015;-78
2023/05/19 13:17:47;;;;;;;10.30;7.30;;;;;;;;;;110707;1249;22691;-79
2023/05/19 13:20:13;;;;;;;12.40;8.50;;;;;;;;;;110767;1248;23145;-78
2023/05/19 13:22:40;;;;;;;13.80;8.90;;;;;;;;;;110746;1250;58901;-79
2023/05/19 13:25:07;;;;;;;9.60;7.60;;;;;;;;;;110662;1249;23356;-79
2023/05/19 13:27:34;;;;;;;19.10;9.90;;;;;;;;;;110669;1250;22695;-80
2023/05/19 13:30:01;;;;;;;16.60;10.10;;;;;;;;;;110749;1250;22898;-78
2023/05/19 13:32:27;;;;;;;13.70;8.40;;;;;;;;;;110678;1250;22333;-80
2023/05/19 13:34:54;;;;;;;12.10;9.00;;;;;;;;;;110604;1250;22336;-78
2023/05/19 13:37:20;;;;;;;11.20;7.50;;;;;;;;;;110622;1253;22270;-77
2023/05/19 13:39:46;;;;;;;12.00;7.90;;;;;;;;;;110625;1250;22338;-78
2023/05/19 13:42:13;;;;;;;13.10;9.30;;;;;;;;;;110652;1249;23998;-78
2023/05/19 13:44:39;;;;;;;14.20;9.70;;;;;;;;;;110616;1249;22637;-77
2023/05/19 13:47:05;;;;;;;14.00;10.90;;;;;;;;;;110857;1249;23199;-78
2023/05/19 13:49:32;;;;;;;13.20;9.40;;;;;;;;;;110743;1250;22125;-78
2023/05/19 13:51:58;;;;;;;19.60;9.40;;;;;;;;;;110770;1249;22264;-80
2023/05/19 13:54:25;;;;;;;21.20;9.80;;;;;;;;;;110308;1250;22410;-80
2023/05/19 13:56:51;;;;;;;14.40;8.60;;;;;;;;;;110514;1251;22346;-80
2023/05/19 13:59:20;;;;;;;11.90;8.70;;;;;;;;;;110617;1250;167484;-80
2023/05/19 14:01:46;;;;;;;21.50;10.50;;;;;;;;;;110857;1250;22337;-80
2023/05/19 14:04:14;;;;;;;15.40;9.20;;;;;;;;;;110844;1250;22440;-79
2023/05/19 14:06:40;;;;;;;16.00;10.60;;;;;;;;;;110851;1249;22349;-78
2023/05/19 14:09:07;;;;;;;31.40;17.30;;;;;;;;;;110555;1249;55906;-80
2023/05/19 14:11:34;;;;;;;53.30;22.60;;;;;;;;;;110667;1250;23882;-78
2023/05/19 14:14:02;;;;;;;20.40;13.40;;;;;;;;;;110576;1251;22574;-80
2023/05/19 14:16:29;;;;;;;20.80;11.00;;;;;;;;;;110635;1250;22175;-77
2023/05/19 14:18:55;;;;;;;22.10;12.50;;;;;;;;;;110637;1250;23268;-78
2023/05/19 14:21:21;;;;;;;16.00;11.10;;;;;;;;;;110593;1249;22297;-77